sensor_id;sensor_type;location;lat;lon;timestamp;pressure;altitude;pressure_sealevel;temperature;humidity
3917;BME280;1973;50.518;7.318;2023-05-11T00:00:34;100710.91;;;13.46;100.00
3917;BME280;1973;50.518;7.318;2023-05-11T00:03:00;100704.41;;;13.40;100.00
3917;BME280;1973;50.518;7.318;2023-05-11T00:05:27;100705.09;;;13.36;100.00
3917;BME280;1973;50.518;7.318;2023-05-11T00:07:53;100698.13;;;13.33;100.00
3917;BME280;1973;50.518;7.318;2023-05-11T00:10:20;100708.56;;;13.31;100.00
3917;BME280;1973;50.518;7.318;2023-05-11T00:12:46;100710.59;;;13.24;100.00
3917;BME280;1973;50.518;7.318;2023-05-11T00:15:13;100706.63;;;13.20;100.00
3917;BME280;1973;50.518;7.318;2023-05-11T00:17:39;100715.16;;;13.19;100.00
3917;BME280;1973;50.518;7.318;2023-05-11T00:20:06;100715.59;;;13.15;100.00
3917;BME280;1973;50.518;7.318;2023-05-11T00:22:33;100713.94;;;13.14;100.00
3917;BME280;1973;50.518;7.318;2023-05-11T00:24:59;100716.69;;;13.14;100.00
3917;BME280;1973;50.518;7.318;2023-05-11T00:27:26;100715.84;;;13.14;100.00
3917;BME280;1973;50.518;7.318;2023-05-11T00:29:52;100715.00;;;13.13;100.00
3917;BME280;1973;50.518;7.318;2023-05-11T00:32:19;100718.00;;;13.12;100.00
3917;BME280;1973;50.518;7.318;2023-05-11T00:34:45;100714.16;;;13.13;100.00
3917;BME280;1973;50.518;7.318;2023-05-11T00:37:12;100712.25;;;13.13;100.00
3917;BME280;1973;50.518;7.318;2023-05-11T00:39:38;100714.78;;;13.15;100.00
3917;BME280;1973;50.518;7.318;2023-05-11T00:42:06;100719.22;;;13.16;100.00
3917;BME280;1973;50.518;7.318;2023-05-11T00:44:32;100710.91;;;13.16;100.00
3917;BME280;1973;50.518;7.318;2023-05-11T00:46:59;100714.78;;;13.15;100.00
3917;BME280;1973;50.518;7.318;2023-05-11T00:49:25;100712.25;;;13.13;100.00
3917;BME280;1973;50.518;7.318;2023-05-11T00:51:52;100708.41;;;13.14;100.00
3917;BME280;1973;50.518;7.318;2023-05-11T00:54:19;100707.31;;;13.15;100.00
3917;BME280;1973;50.518;7.318;2023-05-11T00:56:46;100708.16;;;13.16;100.00
3917;BME280;1973;50.518;7.318;2023-05-11T00:59:13;100713.09;;;13.14;100.00
3917;BME280;1973;50.518;7.318;2023-05-11T01:01:40;100709.47;;;13.13;100.00
3917;BME280;1973;50.518;7.318;2023-05-11T01:04:07;100717.19;;;13.11;100.00
3917;BME280;1973;50.518;7.318;2023-05-11T01:12:17;100708.91;;;13.05;100.00
3917;BME280;1973;50.518;7.318;2023-05-11T01:14:59;100719.00;;;12.99;100.00
3917;BME280;1973;50.518;7.318;2023-05-11T01:17:45;100717.56;;;12.97;100.00
3917;BME280;1973;50.518;7.318;2023-05-11T01:20:20;100724.16;;;12.96;100.00
3917;BME280;1973;50.518;7.318;2023-05-11T01:25:52;100725.47;;;12.93;100.00
3917;BME280;1973;50.518;7.318;2023-05-11T01:31:11;100723.16;;;12.90;100.00
3917;BME280;1973;50.518;7.318;2023-05-11T01:33:51;100733.34;;;12.90;100.00
3917;BME280;1973;50.518;7.318;2023-05-11T01:36:19;100725.31;;;12.88;100.00
3917;BME280;1973;50.518;7.318;2023-05-11T01:38:48;100726.38;;;12.87;100.00
3917;BME280;1973;50.518;7.318;2023-05-11T01:41:17;100730.22;;;12.86;100.00
3917;BME280;1973;50.518;7.318;2023-05-11T01:43:50;100725.53;;;12.87;100.00
3917;BME280;1973;50.518;7.318;2023-05-11T01:46:20;100726.00;;;12.84;100.00
3917;BME280;1973;50.518;7.318;2023-05-11T01:48:51;100730.69;;;12.83;100.00
3917;BME280;1973;50.518;7.318;2023-05-11T01:51:20;100730.09;;;12.81;100.00
3917;BME280;1973;50.518;7.318;2023-05-11T01:53:49;100726.47;;;12.81;100.00
3917;BME280;1973;50.518;7.318;2023-05-11T01:56:18;100727.31;;;12.81;100.00
3917;BME280;1973;50.518;7.318;2023-05-11T01:58:48;100730.09;;;12.81;100.00
3917;BME280;1973;50.518;7.318;2023-05-11T02:01:16;100726.69;;;12.79;100.00
3917;BME280;1973;50.518;7.318;2023-05-11T02:03:44;100735.00;;;12.79;100.00
3917;BME280;1973;50.518;7.318;2023-05-11T02:06:13;100729.94;;;12.76;100.00
3917;BME280;1973;50.518;7.318;2023-05-11T02:08:40;100729.16;;;12.69;100.00
3917;BME280;1973;50.518;7.318;2023-05-11T02:11:08;100727.25;;;12.69;100.00
3917;BME280;1973;50.518;7.318;2023-05-11T02:13:37;100743.63;;;12.71;100.00
3917;BME280;1973;50.518;7.318;2023-05-11T02:16:07;100733.63;;;12.70;100.00
3917;BME280;1973;50.518;7.318;2023-05-11T02:18:38;100740.38;;;12.74;100.00
3917;BME280;1973;50.518;7.318;2023-05-11T02:21:08;100742.91;;;12.76;100.00
3917;BME280;1973;50.518;7.318;2023-05-11T02:23:36;100742.91;;;12.76;100.00
3917;BME280;1973;50.518;7.318;2023-05-11T02:26:03;100746.50;;;12.76;100.00
3917;BME280;1973;50.518;7.318;2023-05-11T02:28:31;100749.28;;;12.76;100.00
3917;BME280;1973;50.518;7.318;2023-05-11T02:31:00;100740.97;;;12.76;100.00
3917;BME280;1973;50.518;7.318;2023-05-11T02:33:34;100735.47;;;12.76;100.00
3917;BME280;1973;50.518;7.318;2023-05-11T02:36:02;100739.53;;;12.74;100.00
3917;BME280;1973;50.518;7.318;2023-05-11T02:38:35;100738.69;;;12.73;100.00
3917;BME280;1973;50.518;7.318;2023-05-11T02:41:05;100737.25;;;12.71;100.00
3917;BME280;1973;50.518;7.318;2023-05-11T02:43:35;100742.97;;;12.69;100.00
3917;BME280;1973;50.518;7.318;2023-05-11T02:46:05;100746.22;;;12.66;100.00
3917;BME280;1973;50.518;7.318;2023-05-11T02:48:38;100741.16;;;12.63;100.00
3917;BME280;1973;50.518;7.318;2023-05-11T02:51:07;100745.44;;;12.59;100.00
3917;BME280;1973;50.518;7.318;2023-05-11T02:53:36;100740.38;;;12.56;100.00
3917;BME280;1973;50.518;7.318;2023-05-11T02:56:06;100744.06;;;12.50;100.00
3917;BME280;1973;50.518;7.318;2023-05-11T02:58:33;100740.69;;;12.48;100.00
3917;BME280;1973;50.518;7.318;2023-05-11T03:01:00;100741.38;;;12.43;100.00
3917;BME280;1973;50.518;7.318;2023-05-11T03:03:27;100744.34;;;12.42;100.00
3917;BME280;1973;50.518;7.318;2023-05-11T03:05:54;100745.44;;;12.41;100.00
3917;BME280;1973;50.518;7.318;2023-05-11T03:08:20;100744.81;;;12.39;100.00
3917;BME280;1973;50.518;7.318;2023-05-11T03:10:47;100741.44;;;12.37;100.00
3917;BME280;1973;50.518;7.318;2023-05-11T03:13:14;100743.56;;;12.35;100.00
3917;BME280;1973;50.518;7.318;2023-05-11T03:15:42;100749.34;;;12.33;100.00
3917;BME280;1973;50.518;7.318;2023-05-11T03:18:09;100739.38;;;12.32;100.00
3917;BME280;1973;50.518;7.318;2023-05-11T03:20:39;100740.22;;;12.33;100.00
3917;BME280;1973;50.518;7.318;2023-05-11T03:23:07;100738.97;;;12.29;100.00
3917;BME280;1973;50.518;7.318;2023-05-11T03:25:34;100742.81;;;12.28;100.00
3917;BME280;1973;50.518;7.318;2023-05-11T03:28:03;100741.13;;;12.27;100.00
3917;BME280;1973;50.518;7.318;2023-05-11T03:30:30;100734.97;;;12.25;100.00
3917;BME280;1973;50.518;7.318;2023-05-11T03:32:58;100741.56;;;12.24;100.00
3917;BME280;1973;50.518;7.318;2023-05-11T03:35:26;100736.06;;;12.24;100.00
3917;BME280;1973;50.518;7.318;2023-05-11T03:37:56;100744.34;;;12.24;100.00
3917;BME280;1973;50.518;7.318;2023-05-11T03:40:23;100743.72;;;12.22;100.00
3917;BME280;1973;50.518;7.318;2023-05-11T03:42:53;100742.66;;;12.23;100.00
3917;BME280;1973;50.518;7.318;2023-05-11T03:45:20;100737.34;;;12.21;100.00
3917;BME280;1973;50.518;7.318;2023-05-11T03:47:48;100740.75;;;12.23;100.00
3917;BME280;1973;50.518;7.318;2023-05-11T03:50:17;100742.22;;;12.26;100.00
3917;BME280;1973;50.518;7.318;2023-05-11T03:52:45;100736.69;;;12.26;100.00
3917;BME280;1973;50.518;7.318;2023-05-11T03:55:11;100737.28;;;12.28;100.00
3917;BME280;1973;50.518;7.318;2023-05-11T03:57:38;100738.97;;;12.29;100.00
3917;BME280;1973;50.518;7.318;2023-05-11T04:00:05;100744.50;;;12.29;100.00
3917;BME280;1973;50.518;7.318;2023-05-11T04:02:33;100738.75;;;12.30;100.00
3917;BME280;1973;50.518;7.318;2023-05-11T04:05:05;100742.72;;;12.34;100.00
3917;BME280;1973;50.518;7.318;2023-05-11T04:07:32;100748.03;;;12.36;100.00
3917;BME280;1973;50.518;7.318;2023-05-11T04:09:58;100746.72;;;12.38;100.00
3917;BME280;1973;50.518;7.318;2023-05-11T04:12:25;100748.72;;;12.31;100.00
3917;BME280;1973;50.518;7.318;2023-05-11T04:14:51;100746.41;;;12.28;100.00
3917;BME280;1973;50.518;7.318;2023-05-11T04:17:17;100748.41;;;12.21;100.00
3917;BME280;1973;50.518;7.318;2023-05-11T04:19:44;100749.84;;;12.24;100.00
3917;BME280;1973;50.518;7.318;2023-05-11T04:22:10;100751.34;;;12.26;100.00
3917;BME280;1973;50.518;7.318;2023-05-11T04:24:37;100747.94;;;12.24;100.00
3917;BME280;1973;50.518;7.318;2023-05-11T04:27:04;100753.91;;;12.21;100.00
3917;BME280;1973;50.518;7.318;2023-05-11T04:29:30;100758.84;;;12.19;100.00
3917;BME280;1973;50.518;7.318;2023-05-11T04:31:57;100757.75;;;12.20;100.00
3917;BME280;1973;50.518;7.318;2023-05-11T04:34:23;100763.03;;;12.22;100.00
3917;BME280;1973;50.518;7.318;2023-05-11T04:36:50;100759.91;;;12.18;100.00
3917;BME280;1973;50.518;7.318;2023-05-11T04:39:17;100764.56;;;12.17;100.00
3917;BME280;1973;50.518;7.318;2023-05-11T04:41:44;100757.75;;;12.20;100.00
3917;BME280;1973;50.518;7.318;2023-05-11T04:44:11;100762.41;;;12.19;100.00
3917;BME280;1973;50.518;7.318;2023-05-11T04:46:37;100760.75;;;12.18;100.00
3917;BME280;1973;50.518;7.318;2023-05-11T04:49:04;100762.41;;;12.19;100.00
3917;BME280;1973;50.518;7.318;2023-05-11T04:51:31;100764.19;;;12.14;100.00
3917;BME280;1973;50.518;7.318;2023-05-11T04:53:58;100770.56;;;12.14;100.00
3917;BME280;1973;50.518;7.318;2023-05-11T04:56:24;100771.78;;;12.18;100.00
3917;BME280;1973;50.518;7.318;2023-05-11T04:58:51;100769.63;;;12.20;100.00
3917;BME280;1973;50.518;7.318;2023-05-11T05:01:18;100767.03;;;12.26;100.00
3917;BME280;1973;50.518;7.318;2023-05-11T05:03:47;100775.47;;;12.31;100.00
3917;BME280;1973;50.518;7.318;2023-05-11T05:06:13;100775.47;;;12.31;100.00
3917;BME280;1973;50.518;7.318;2023-05-11T05:08:40;100783.06;;;12.35;100.00
3917;BME280;1973;50.518;7.318;2023-05-11T05:11:06;100776.88;;;12.40;100.00
3917;BME280;1973;50.518;7.318;2023-05-11T05:13:33;100777.72;;;12.40;100.00
3917;BME280;1973;50.518;7.318;2023-05-11T05:15:59;100780.88;;;12.44;100.00
3917;BME280;1973;50.518;7.318;2023-05-11T05:18:26;100777.66;;;12.47;100.00
3917;BME280;1973;50.518;7.318;2023-05-11T05:20:52;100775.34;;;12.44;100.00
3917;BME280;1973;50.518;7.318;2023-05-11T05:23:19;100780.41;;;12.47;100.00
3917;BME280;1973;50.518;7.318;2023-05-11T05:25:46;100781.88;;;12.49;100.00
3917;BME280;1973;50.518;7.318;2023-05-11T05:28:12;100786.56;;;12.49;100.00
3917;BME280;1973;50.518;7.318;2023-05-11T05:30:39;100781.25;;;12.47;100.00
3917;BME280;1973;50.518;7.318;2023-05-11T05:33:05;100788.47;;;12.48;100.00
3917;BME280;1973;50.518;7.318;2023-05-11T05:35:32;100793.16;;;12.48;100.00
3917;BME280;1973;50.518;7.318;2023-05-11T05:37:58;100792.69;;;12.51;100.00
3917;BME280;1973;50.518;7.318;2023-05-11T05:40:25;100796.69;;;12.55;100.00
3917;BME280;1973;50.518;7.318;2023-05-11T05:42:52;100800.22;;;12.62;100.00
3917;BME280;1973;50.518;7.318;2023-05-11T05:45:19;100799.28;;;12.68;100.00
3917;BME280;1973;50.518;7.318;2023-05-11T05:47:45;100804.59;;;12.69;100.00
3917;BME280;1973;50.518;7.318;2023-05-11T05:50:14;100806.44;;;12.76;100.00
3917;BME280;1973;50.518;7.318;2023-05-11T05:52:41;100806.38;;;12.82;100.00
3917;BME280;1973;50.518;7.318;2023-05-11T05:55:08;100803.53;;;12.89;100.00
3917;BME280;1973;50.518;7.318;2023-05-11T05:57:34;100799.00;;;12.94;100.00
3917;BME280;1973;50.518;7.318;2023-05-11T06:00:01;100819.34;;;13.00;100.00
3917;BME280;1973;50.518;7.318;2023-05-11T06:02:27;100810.13;;;13.06;100.00
3917;BME280;1973;50.518;7.318;2023-05-11T06:04:54;100807.06;;;13.14;100.00
3917;BME280;1973;50.518;7.318;2023-05-11T06:07:21;100810.81;;;13.20;100.00
3917;BME280;1973;50.518;7.318;2023-05-11T06:09:48;100812.91;;;13.24;100.00
3917;BME280;1973;50.518;7.318;2023-05-11T06:12:14;100811.56;;;13.27;100.00
3917;BME280;1973;50.518;7.318;2023-05-11T06:14:41;100811.72;;;13.32;100.00
3917;BME280;1973;50.518;7.318;2023-05-11T06:17:07;100806.56;;;13.35;100.00
3917;BME280;1973;50.518;7.318;2023-05-11T06:19:34;100803.13;;;13.40;100.00
3917;BME280;1973;50.518;7.318;2023-05-11T06:22:00;100805.41;;;13.43;100.00
3917;BME280;1973;50.518;7.318;2023-05-11T06:24:30;100803.88;;;13.47;100.00
3917;BME280;1973;50.518;7.318;2023-05-11T06:26:56;100807.22;;;13.49;100.00
3917;BME280;1973;50.518;7.318;2023-05-11T06:29:23;100808.44;;;13.53;100.00
3917;BME280;1973;50.518;7.318;2023-05-11T06:31:50;100796.09;;;13.55;100.00
3917;BME280;1973;50.518;7.318;2023-05-11T06:34:21;100789.22;;;13.58;100.00
3917;BME280;1973;50.518;7.318;2023-05-11T06:36:47;100800.88;;;13.60;100.00
3917;BME280;1973;50.518;7.318;2023-05-11T06:39:14;100802.84;;;13.59;100.00
3917;BME280;1973;50.518;7.318;2023-05-11T06:41:41;100804.13;;;13.57;100.00
3917;BME280;1973;50.518;7.318;2023-05-11T06:44:07;100810.78;;;13.56;100.00
3917;BME280;1973;50.518;7.318;2023-05-11T06:46:34;100796.94;;;13.56;100.00
3917;BME280;1973;50.518;7.318;2023-05-11T06:49:01;100800.66;;;13.61;100.00
3917;BME280;1973;50.518;7.318;2023-05-11T06:51:27;100792.25;;;13.68;100.00
3917;BME280;1973;50.518;7.318;2023-05-11T06:53:54;100796.63;;;13.76;100.00
3917;BME280;1973;50.518;7.318;2023-05-11T06:56:21;100797.34;;;13.83;100.00
3917;BME280;1973;50.518;7.318;2023-05-11T06:58:47;100801.47;;;13.92;100.00
3917;BME280;1973;50.518;7.318;2023-05-11T07:01:13;100807.38;;;13.95;100.00
3917;BME280;1973;50.518;7.318;2023-05-11T07:03:40;100803.53;;;13.96;100.00
3917;BME280;1973;50.518;7.318;2023-05-11T07:06:07;100804.75;;;14.00;100.00
3917;BME280;1973;50.518;7.318;2023-05-11T07:08:33;100798.25;;;14.06;100.00
3917;BME280;1973;50.518;7.318;2023-05-11T07:11:00;100801.16;;;14.11;100.00
3917;BME280;1973;50.518;7.318;2023-05-11T07:13:26;100799.84;;;14.14;100.00
3917;BME280;1973;50.518;7.318;2023-05-11T07:15:53;100798.50;;;14.17;100.00
3917;BME280;1973;50.518;7.318;2023-05-11T07:18:22;100802.72;;;14.19;100.00
3917;BME280;1973;50.518;7.318;2023-05-11T07:20:49;100802.47;;;14.21;100.00
3917;BME280;1973;50.518;7.318;2023-05-11T07:23:16;100799.84;;;14.26;100.00
3917;BME280;1973;50.518;7.318;2023-05-11T07:25:42;100796.09;;;14.32;100.00
3917;BME280;1973;50.518;7.318;2023-05-11T07:28:09;100810.13;;;14.37;100.00
3917;BME280;1973;50.518;7.318;2023-05-11T07:30:35;100807.44;;;14.42;100.00
3917;BME280;1973;50.518;7.318;2023-05-11T07:33:02;100806.16;;;14.44;100.00
3917;BME280;1973;50.518;7.318;2023-05-11T07:35:29;100805.41;;;14.49;100.00
3917;BME280;1973;50.518;7.318;2023-05-11T07:37:56;100810.59;;;14.57;100.00
3917;BME280;1973;50.518;7.318;2023-05-11T07:40:22;100806.25;;;14.61;100.00
3917;BME280;1973;50.518;7.318;2023-05-11T07:42:49;100807.94;;;14.62;100.00
3917;BME280;1973;50.518;7.318;2023-05-11T07:45:15;100807.47;;;14.65;100.00
3917;BME280;1973;50.518;7.318;2023-05-11T07:47:42;100808.91;;;14.68;100.00
3917;BME280;1973;50.518;7.318;2023-05-11T07:50:08;100814.22;;;14.69;100.00
3917;BME280;1973;50.518;7.318;2023-05-11T07:52:35;100815.06;;;14.70;100.00
3917;BME280;1973;50.518;7.318;2023-05-11T07:55:01;100810.34;;;14.70;100.00
3917;BME280;1973;50.518;7.318;2023-05-11T07:57:28;100815.41;;;14.73;100.00
3917;BME280;1973;50.518;7.318;2023-05-11T07:59:55;100815.16;;;14.75;100.00
3917;BME280;1973;50.518;7.318;2023-05-11T08:02:21;100810.44;;;14.75;100.00
3917;BME280;1973;50.518;7.318;2023-05-11T08:04:48;100814.91;;;14.76;100.00
3917;BME280;1973;50.518;7.318;2023-05-11T08:07:14;100808.03;;;14.79;100.00
3917;BME280;1973;50.518;7.318;2023-05-11T08:09:41;100811.66;;;14.79;100.00
3917;BME280;1973;50.518;7.318;2023-05-11T08:12:08;100812.50;;;14.80;100.00
3917;BME280;1973;50.518;7.318;2023-05-11T08:14:34;100808.41;;;14.82;100.00
3917;BME280;1973;50.518;7.318;2023-05-11T08:17:01;100817.31;;;14.84;100.00
3917;BME280;1973;50.518;7.318;2023-05-11T08:19:28;100810.69;;;14.85;100.00
3917;BME280;1973;50.518;7.318;2023-05-11T08:21:54;100815.13;;;14.86;100.00
3917;BME280;1973;50.518;7.318;2023-05-11T08:24:21;100812.97;;;14.88;100.00
3917;BME280;1973;50.518;7.318;2023-05-11T08:26:47;100810.78;;;14.90;100.00
3917;BME280;1973;50.518;7.318;2023-05-11T08:29:13;100817.31;;;14.96;100.00
3917;BME280;1973;50.518;7.318;2023-05-11T08:31:40;100818.25;;;15.01;100.00
3917;BME280;1973;50.518;7.318;2023-05-11T08:34:07;100810.06;;;15.06;100.00
3917;BME280;1973;50.518;7.318;2023-05-11T08:36:39;100810.25;;;15.17;100.00
3917;BME280;1973;50.518;7.318;2023-05-11T08:39:05;100808.91;;;15.19;100.00
3917;BME280;1973;50.518;7.318;2023-05-11T08:41:33;100811.06;;;15.29;100.00
3917;BME280;1973;50.518;7.318;2023-05-11T08:44:00;100813.94;;;15.34;100.00
3917;BME280;1973;50.518;7.318;2023-05-11T08:46:28;100816.94;;;15.44;100.00
3917;BME280;1973;50.518;7.318;2023-05-11T08:48:56;100814.16;;;15.55;100.00
3917;BME280;1973;50.518;7.318;2023-05-11T08:51:23;100811.78;;;15.64;100.00
3917;BME280;1973;50.518;7.318;2023-05-11T08:53:50;100805.34;;;15.75;100.00
3917;BME280;1973;50.518;7.318;2023-05-11T08:56:18;100808.81;;;15.82;100.00
3917;BME280;1973;50.518;7.318;2023-05-11T08:58:48;100810.09;;;15.91;100.00
3917;BME280;1973;50.518;7.318;2023-05-11T09:01:16;100814.28;;;15.94;100.00
3917;BME280;1973;50.518;7.318;2023-05-11T09:03:43;100810.78;;;15.98;100.00
3917;BME280;1973;50.518;7.318;2023-05-11T09:06:11;100808.56;;;16.00;100.00
3917;BME280;1973;50.518;7.318;2023-05-11T09:08:40;100813.03;;;16.01;100.00
3917;BME280;1973;50.518;7.318;2023-05-11T09:11:06;100814.22;;;16.05;100.00
3917;BME280;1973;50.518;7.318;2023-05-11T09:13:34;100807.66;;;16.12;100.00
3917;BME280;1973;50.518;7.318;2023-05-11T09:16:00;100808.16;;;16.08;100.00
3917;BME280;1973;50.518;7.318;2023-05-11T09:18:27;100807.66;;;16.12;100.00
3917;BME280;1973;50.518;7.318;2023-05-11T09:20:54;100808.00;;;16.15;100.00
3917;BME280;1973;50.518;7.318;2023-05-11T09:23:24;100804.22;;;16.21;100.00
3917;BME280;1973;50.518;7.318;2023-05-11T09:25:54;100805.06;;;16.22;100.00
3917;BME280;1973;50.518;7.318;2023-05-11T09:28:24;100807.66;;;16.28;100.00
3917;BME280;1973;50.518;7.318;2023-05-11T09:30:52;100803.47;;;16.26;100.00
3917;BME280;1973;50.518;7.318;2023-05-11T09:33:23;100803.63;;;16.36;100.00
3917;BME280;1973;50.518;7.318;2023-05-11T09:35:50;100807.66;;;16.45;100.00
3917;BME280;1973;50.518;7.318;2023-05-11T09:38:17;100811.09;;;16.52;100.00
3917;BME280;1973;50.518;7.318;2023-05-11T09:40:53;100807.16;;;16.65;100.00
3917;BME280;1973;50.518;7.318;2023-05-11T09:43:24;100802.59;;;16.75;100.00
3917;BME280;1973;50.518;7.318;2023-05-11T09:45:53;100801.56;;;16.81;100.00
3917;BME280;1973;50.518;7.318;2023-05-11T09:50:48;100800.66;;;16.97;100.00
3917;BME280;1973;50.518;7.318;2023-05-11T09:53:15;100799.63;;;17.03;100.00
3917;BME280;1973;50.518;7.318;2023-05-11T09:55:53;100796.72;;;17.15;100.00
3917;BME280;1973;50.518;7.318;2023-05-11T09:58:20;100791.47;;;17.19;100.00
3917;BME280;1973;50.518;7.318;2023-05-11T10:00:48;100784.38;;;17.28;100.00
3917;BME280;1973;50.518;7.318;2023-05-11T10:03:17;100783.28;;;17.29;100.00
3917;BME280;1973;50.518;7.318;2023-05-11T10:05:58;100782.78;;;17.37;100.00
3917;BME280;1973;50.518;7.318;2023-05-11T10:08:29;100779.00;;;17.48;100.00
3917;BME280;1973;50.518;7.318;2023-05-11T10:10:56;100781.44;;;17.61;100.00
3917;BME280;1973;50.518;7.318;2023-05-11T10:13:23;100776.56;;;17.73;100.00
3917;BME280;1973;50.518;7.318;2023-05-11T10:15:50;100769.97;;;17.84;100.00
3917;BME280;1973;50.518;7.318;2023-05-11T10:18:17;100777.28;;;17.90;100.00
3917;BME280;1973;50.518;7.318;2023-05-11T10:20:46;100772.09;;;18.04;100.00
3917;BME280;1973;50.518;7.318;2023-05-11T10:23:13;100759.63;;;18.12;100.00
3917;BME280;1973;50.518;7.318;2023-05-11T10:25:40;100770.28;;;18.20;100.00
3917;BME280;1973;50.518;7.318;2023-05-11T10:28:08;100764.47;;;18.26;100.00
3917;BME280;1973;50.518;7.318;2023-05-11T10:30:35;100752.56;;;18.36;100.00
3917;BME280;1973;50.518;7.318;2023-05-11T10:33:03;100752.38;;;18.47;100.00
3917;BME280;1973;50.518;7.318;2023-05-11T10:35:31;100753.81;;;18.55;100.00
3917;BME280;1973;50.518;7.318;2023-05-11T10:37:59;100757.28;;;18.72;100.00
3917;BME280;1973;50.518;7.318;2023-05-11T10:40:26;100754.00;;;18.85;100.00
3917;BME280;1973;50.518;7.318;2023-05-11T10:43:22;100755.44;;;18.88;100.00
3917;BME280;1973;50.518;7.318;2023-05-11T10:54:48;100749.66;;;19.10;100.00
3917;BME280;1973;50.518;7.318;2023-05-11T10:57:48;100735.72;;;19.10;100.00
3917;BME280;1973;50.518;7.318;2023-05-11T11:03:17;100735.44;;;19.16;100.00
3917;BME280;1973;50.518;7.318;2023-05-11T11:05:44;100744.66;;;19.22;100.00
3917;BME280;1973;50.518;7.318;2023-05-11T11:08:11;100738.00;;;19.33;100.00
3917;BME280;1973;50.518;7.318;2023-05-11T11:10:40;100739.75;;;19.49;100.00
3917;BME280;1973;50.518;7.318;2023-05-11T11:13:10;100733.34;;;19.64;100.00
3917;BME280;1973;50.518;7.318;2023-05-11T11:18:23;100725.84;;;19.95;100.00
3917;BME280;1973;50.518;7.318;2023-05-11T11:20:51;100727.53;;;20.06;99.45
3917;BME280;1973;50.518;7.318;2023-05-11T11:26:10;100707.94;;;20.16;96.42
3917;BME280;1973;50.518;7.318;2023-05-11T11:31:29;100719.41;;;20.24;89.12
3917;BME280;1973;50.518;7.318;2023-05-11T11:39:27;100707.31;;;20.64;83.53
3917;BME280;1973;50.518;7.318;2023-05-11T11:42:03;100707.81;;;20.81;82.83
3917;BME280;1973;50.518;7.318;2023-05-11T11:44:32;100699.34;;;20.92;84.93
3917;BME280;1973;50.518;7.318;2023-05-11T11:49:40;100684.72;;;21.15;79.59
3917;BME280;1973;50.518;7.318;2023-05-11T11:52:31;100688.56;;;21.29;73.39
3917;BME280;1973;50.518;7.318;2023-05-11T11:55:00;100691.88;;;21.36;75.69
3917;BME280;1973;50.518;7.318;2023-05-11T12:00:06;100685.38;;;21.46;61.10
3917;BME280;1973;50.518;7.318;2023-05-11T12:02:43;100686.81;;;21.43;64.95
3917;BME280;1973;50.518;7.318;2023-05-11T12:05:11;100677.88;;;21.36;69.74
3917;BME280;1973;50.518;7.318;2023-05-11T12:07:41;100674.41;;;21.54;70.55
3917;BME280;1973;50.518;7.318;2023-05-11T12:10:08;100670.34;;;21.70;68.05
3917;BME280;1973;50.518;7.318;2023-05-11T12:12:38;100674.78;;;21.76;66.03
3917;BME280;1973;50.518;7.318;2023-05-11T12:15:06;100670.84;;;21.77;66.26
3917;BME280;1973;50.518;7.318;2023-05-11T12:17:37;100659.88;;;21.81;60.32
3917;BME280;1973;50.518;7.318;2023-05-11T12:20:12;100665.97;;;21.88;62.91
3917;BME280;1973;50.518;7.318;2023-05-11T12:22:39;100669.09;;;21.87;63.22
3917;BME280;1973;50.518;7.318;2023-05-11T12:25:07;100664.00;;;21.89;62.06
3917;BME280;1973;50.518;7.318;2023-05-11T12:27:34;100660.63;;;21.97;63.85
3917;BME280;1973;50.518;7.318;2023-05-11T12:30:00;100658.66;;;21.97;63.65
3917;BME280;1973;50.518;7.318;2023-05-11T12:32:28;100651.59;;;22.00;61.32
3917;BME280;1973;50.518;7.318;2023-05-11T12:35:03;100656.78;;;21.82;59.31
3917;BME280;1973;50.518;7.318;2023-05-11T12:37:30;100656.19;;;21.85;62.79
3917;BME280;1973;50.518;7.318;2023-05-11T12:39:57;100652.94;;;21.73;63.19
3917;BME280;1973;50.518;7.318;2023-05-11T12:42:25;100652.44;;;21.66;61.80
3917;BME280;1973;50.518;7.318;2023-05-11T12:44:53;100648.97;;;21.46;62.10
3917;BME280;1973;50.518;7.318;2023-05-11T12:47:19;100652.72;;;21.31;63.55
3917;BME280;1973;50.518;7.318;2023-05-11T12:49:46;100662.00;;;21.21;66.23
3917;BME280;1973;50.518;7.318;2023-05-11T12:52:12;100655.06;;;21.04;69.89
3917;BME280;1973;50.518;7.318;2023-05-11T12:54:40;100650.13;;;20.80;72.51
3917;BME280;1973;50.518;7.318;2023-05-11T12:57:30;100649.13;;;20.61;73.56
3917;BME280;1973;50.518;7.318;2023-05-11T13:02:50;100652.00;;;20.26;74.61
3917;BME280;1973;50.518;7.318;2023-05-11T13:05:22;100647.00;;;20.13;76.83
3917;BME280;1973;50.518;7.318;2023-05-11T13:08:02;100651.47;;;20.14;77.98
3917;BME280;1973;50.518;7.318;2023-05-11T13:10:29;100653.72;;;20.02;78.00
3917;BME280;1973;50.518;7.318;2023-05-11T13:12:56;100644.75;;;20.00;76.46
3917;BME280;1973;50.518;7.318;2023-05-11T13:15:23;100638.09;;;19.85;77.17
3917;BME280;1973;50.518;7.318;2023-05-11T13:17:58;100641.44;;;19.77;77.96
3917;BME280;1973;50.518;7.318;2023-05-11T13:20:30;100647.88;;;19.68;78.32
3917;BME280;1973;50.518;7.318;2023-05-11T13:23:15;100640.06;;;19.50;76.22
3917;BME280;1973;50.518;7.318;2023-05-11T13:28:12;100638.94;;;19.46;80.78
3917;BME280;1973;50.518;7.318;2023-05-11T13:30:39;100636.16;;;19.51;80.96
3917;BME280;1973;50.518;7.318;2023-05-11T13:33:06;100638.38;;;19.54;81.33
3917;BME280;1973;50.518;7.318;2023-05-11T13:35:40;100633.34;;;19.56;81.44
3917;BME280;1973;50.518;7.318;2023-05-11T13:38:08;100636.69;;;19.53;82.18
3917;BME280;1973;50.518;7.318;2023-05-11T13:40:34;100640.88;;;19.60;81.58
3917;BME280;1973;50.518;7.318;2023-05-11T13:43:00;100638.66;;;19.67;82.90
3917;BME280;1973;50.518;7.318;2023-05-11T13:45:27;100637.00;;;19.61;81.49
3917;BME280;1973;50.518;7.318;2023-05-11T13:47:54;100641.44;;;19.62;81.05
3917;BME280;1973;50.518;7.318;2023-05-11T13:50:22;100640.88;;;19.70;82.06
3917;BME280;1973;50.518;7.318;2023-05-11T13:52:52;100626.91;;;19.70;83.04
3917;BME280;1973;50.518;7.318;2023-05-11T13:55:19;100630.56;;;19.71;81.33
3917;BME280;1973;50.518;7.318;2023-05-11T13:57:46;100631.41;;;19.71;80.52